»·PEaware :: N350PB KPSP-KSNA

N350PB :: KPSP-KSNA

FLIGHT INFORMATION

Flight Status: Arrived
Operator: Privately registered:
United States
More flights under this callsign
Pilot: John H. (3957)
Aircraft: BEECH AIRCRAFT SUPER KING AIR 350
(B350)
More flights by this aircraft type
Origin: KPSP Palm Springs Intl
United States
Destination: KSNA John Wayne-Orange Co
United States
More flights between these airports :: More routes between these airports
Route: +PSP V388 DEWAY HDF KAYOH STAR
File this flight plan on PilotEdge
Remarks: TEC route PSPP8B
Altitude:
(Current/Filed)
16,000ft
Speed:
(Current/Filed)
245kts
Departed: 25-Apr-19 11:37 AM
Arrived: 25-Apr-19 12:14 PM
Distance/Time
Traveled:
69nm/0:37
Distance/Time
To Go:
Arrived

Flight Plot

Page will automatically refresh every two minutes.


Map Options




Map Legend


Flown Route
Filed Route
Departure Airport
Arrival Airport
Navaid (VOR, NDB)
Fix

Horizontal Profiles

Position Reports

Time Latitude Longitude Heading Altitude Ground
Speed
25-Apr-19 11:22 33.822588 -116.495907 245 392ft 0kts
25-Apr-19 11:23 33.822588 -116.495907 245 392ft 0kts
25-Apr-19 11:24 33.822588 -116.495907 245 392ft 0kts
25-Apr-19 11:25 33.822588 -116.495907 245 392ft 0kts
25-Apr-19 11:26 33.822588 -116.495907 245 392ft 0kts
25-Apr-19 11:27 33.822588 -116.495907 245 392ft 0kts
25-Apr-19 11:28 33.822588 -116.495907 245 392ft 0kts
25-Apr-19 11:29 33.822512 -116.496085 239 393ft 8kts
25-Apr-19 11:30 33.819451 -116.496642 238 392ft 17kts
25-Apr-19 11:31 33.819228 -116.497050 233 393ft 0kts
25-Apr-19 11:32 33.819228 -116.497050 233 393ft 0kts
25-Apr-19 11:33 33.819228 -116.497050 233 393ft 0kts
25-Apr-19 11:34 33.819228 -116.497050 233 393ft 0kts
25-Apr-19 11:35 33.819336 -116.498453 322 396ft 0kts
25-Apr-19 11:36 33.840448 -116.519108 321 999ft 139kts
25-Apr-19 11:37 33.870690 -116.549962 321 2636ft 144kts
25-Apr-19 11:38 33.903494 -116.573633 24 4242ft 141kts
25-Apr-19 11:39 33.903970 -116.532206 112 5781ft 142kts
25-Apr-19 11:40 33.888983 -116.487951 112 7332ft 142kts
25-Apr-19 11:41 33.874065 -116.442890 112 8890ft 145kts
25-Apr-19 11:42 33.844896 -116.417921 146 10310ft 144kts
25-Apr-19 11:43 33.858733 -116.389640 326 11541ft 153kts
25-Apr-19 11:44 33.875761 -116.442186 286 12003ft 204kts
25-Apr-19 11:45 33.894474 -116.516191 286 11999ft 249kts
25-Apr-19 11:46 33.915209 -116.599577 286 11993ft 263kts
25-Apr-19 11:47 33.932195 -116.668465 286 11991ft 261kts
25-Apr-19 11:48 33.945680 -116.743110 261 11987ft 258kts
25-Apr-19 11:49 33.914967 -116.828175 246 11994ft 256kts
25-Apr-19 11:50 33.885839 -116.906343 244 11975ft 257kts
25-Apr-19 11:51 33.856220 -116.984467 249 11812ft 258kts
25-Apr-19 11:52 33.830677 -117.065078 249 11537ft 257kts
25-Apr-19 11:53 33.805524 -117.139137 248 11000ft 235kts
25-Apr-19 11:54 33.780913 -117.208969 261 10328ft 224kts
25-Apr-19 11:55 33.778368 -117.283143 271 9335ft 222kts
25-Apr-19 11:56 33.779160 -117.357640 271 8263ft 224kts
25-Apr-19 11:57 33.779842 -117.430361 271 7999ft 214kts
25-Apr-19 11:58 33.780498 -117.501347 271 7992ft 212kts
25-Apr-19 11:59 33.781104 -117.571820 271 7985ft 210kts
25-Apr-19 12:00 33.781792 -117.642326 271 7384ft 220kts
25-Apr-19 12:01 33.782401 -117.715932 270 5922ft 224kts
25-Apr-19 12:02 33.800723 -117.779316 303 5171ft 194kts
25-Apr-19 12:03 33.827498 -117.827037 298 5048ft 177kts
25-Apr-19 12:04 33.864209 -117.837272 32 4530ft 186kts
25-Apr-19 12:05 33.891372 -117.793131 90 3992ft 169kts
25-Apr-19 12:06 33.888756 -117.745806 131 3932ft 125kts
25-Apr-19 12:07 33.863640 -117.754132 224 3953ft 116kts
25-Apr-19 12:08 33.839912 -117.780850 221 3945ft 126kts
25-Apr-19 12:09 33.808401 -117.799140 202 3594ft 149kts
25-Apr-19 12:10 33.772517 -117.817557 201 3066ft 144kts
25-Apr-19 12:11 33.736794 -117.832650 199 2083ft 153kts
25-Apr-19 12:12 33.701851 -117.852351 205 660ft 153kts
25-Apr-19 12:13 33.675630 -117.869013 216 61ft 28kts
25-Apr-19 12:14 33.674080 -117.871388 208 61ft 16kts
25-Apr-19 12:15 33.674060 -117.872258 15 61ft 0kts

Navigation Log

Ident Type
Flight plan parsing failed, navigation log unavailable